NCAR-RAP Real-Time Weather Data

Output produced by METARs form (06 July 2020  13:08 UTC)
found at http://weather.rap.ucar.edu/surface/
 
Conditions at: KSPI observed 06 July 2020  12:52 UTC
Temperature: 26.1°C (79°F)
Dewpoint: 21.7°C (71°F) [RH = 77%]
Pressure (altimeter): 30.00 inches Hg (1016.0 mb)
[Sea-level pressure: 1015.3 mb]
Winds: from the E (80 degrees) at 3 MPH (3 knots; 1.6 m/s)
Visibility: 10 or more miles (16+ km)
Ceiling: at least 12,000 feet AGL
Clouds: sky clear below 12,000 feet AGL
Present Weather:
SOME DATA ABOVE MAY BE INACCURATE!!!
"$" is an indication the sensor requires maintenance
KSPI 061252Z 08003KT 10SM CLR 26/22 A3000 RMK AO2 SLP153 T02610217 $